Time;durP1;ratioP1;P1;durP2;ratioP2;P2;SDS_P1;SDS_P2;PMS_P1;PMS_P2;Temp;Humidity;BMP_temperature;BMP_pressure;BME280_temperature;BME280_humidity;BME280_pressure;Samples;Min_cycle;Max_cycle;Signal;HPM_P1;HPM_P2
2022/09/08 00:02:22;;;;;;;;;;;;;;;;;;4932515;29;19915;-88
2022/09/08 00:04:47;;;;;;;;;;;;;;;;;;4930574;29;19915;-88
2022/09/08 00:07:12;;;;;;;;;;;;;;;;;;4938968;28;19915;-88
2022/09/08 00:09:37;;;;;;;;;;;;;;;;;;4934551;29;19915;-87
2022/09/08 00:12:02;;;;;;;;;;;;;;;;;;4936276;28;20305;-88
2022/09/08 00:14:27;;;;;;;;;;;;;;;;;;4934175;29;19998;-88
2022/09/08 00:16:53;;;;;;;;;;;;;;;;;;4932561;29;20278;-87
2022/09/08 00:19:18;;;;;;;;;;;;;;;;;;4937107;29;19949;-88
2022/09/08 00:21:43;;;;;;;;;;;;;;;;;;4933878;29;20309;-88
2022/09/08 00:24:08;;;;;;;;;;;;;;;;;;4930413;29;19915;-87
2022/09/08 00:26:33;;;;;;;;;;;;;;;;;;4928254;29;20024;-89
2022/09/08 00:28:58;;;;;;;;;;;;;;;;;;4929389;29;19919;-87
2022/09/08 00:31:23;;;;;;;;;;;;;;;;;;4932923;29;19977;-88
2022/09/08 00:33:49;;;;;;;;;;;;;;;;;;4937002;29;19922;-88
2022/09/08 00:36:15;;;;;;;;;;;;;;;;;;4932159;29;19914;-88
2022/09/08 00:38:40;;;;;;;;;;;;;;;;;;4937316;29;19930;-89
2022/09/08 00:41:12;;;;;;;;;;;;;;;;;;4931828;29;20545;-87
2022/09/08 00:43:37;;;;;;;;;;;;;;;;;;4934649;29;19942;-87
2022/09/08 00:46:03;;;;;;;;;;;;;;;;;;4936569;29;20025;-88
2022/09/08 00:48:28;;;;;;;;;;;;;;;;;;4929685;29;19922;-88
2022/09/08 00:50:53;;;;;;;;;;;;;;;;;;4941480;28;19922;-88
2022/09/08 00:53:18;;;;;;;;;;;;;;;;;;4936397;29;19999;-88
2022/09/08 00:55:43;;;;;;;;;;;;;;;;;;4930819;29;19921;-88
2022/09/08 00:58:09;;;;;;;;;;;;;;;;;;4940501;29;20384;-88
2022/09/08 01:00:34;;;;;;;;;;;;;;;;;;4931720;29;19969;-89
2022/09/08 01:02:59;;;;;;;;;;;;;;;;;;4935216;29;19993;-88
2022/09/08 01:05:24;;;;;;;;;;;;;;;;;;4932629;28;20293;-88
2022/09/08 01:13:17;;;;;;;;;;;;;;;;;;4930865;29;19922;-89
2022/09/08 01:15:42;;;;;;;;;;;;;;;;;;4932284;29;19915;-88
2022/09/08 01:18:07;;;;;;;;;;;;;;;;;;4933319;29;20001;-88
2022/09/08 01:20:33;;;;;;;;;;;;;;;;;;4932014;29;19961;-88
2022/09/08 01:22:58;;;;;;;;;;;;;;;;;;4929298;29;20409;-88
2022/09/08 01:25:26;;;;;;;;;;;;;;;;;;4927720;29;20009;-90
2022/09/08 01:27:52;;;;;;;;;;;;;;;;;;4936066;29;19918;-88
2022/09/08 01:30:17;;;;;;;;;;;;;;;;;;4935700;29;19921;-88
2022/09/08 01:32:42;;;;;;;;;;;;;;;;;;4933357;28;20557;-88
2022/09/08 01:35:07;;;;;;;;;;;;;;;;;;4934830;29;19961;-88
2022/09/08 01:37:32;;;;;;;;;;;;;;;;;;4937139;29;21507;-87
2022/09/08 01:39:58;;;;;;;;;;;;;;;;;;4941652;29;20014;-88
2022/09/08 01:42:23;;;;;;;;;;;;;;;;;;4932204;29;19919;-88
2022/09/08 01:44:48;;;;;;;;;;;;;;;;;;4932558;29;20001;-88
2022/09/08 01:47:13;;;;;;;;;;;;;;;;;;4937290;29;19918;-90
2022/09/08 01:49:38;;;;;;;;;;;;;;;;;;4931686;29;19927;-88
2022/09/08 01:52:03;;;;;;;;;;;;;;;;;;4936863;29;19914;-88
2022/09/08 01:54:28;;;;;;;;;;;;;;;;;;4935820;29;19915;-89
2022/09/08 01:56:54;;;;;;;;;;;;;;;;;;4933568;29;19937;-88
2022/09/08 01:59:19;;;;;;;;;;;;;;;;;;4936949;29;19931;-88
2022/09/08 02:01:44;;;;;;;;;;;;;;;;;;4932507;29;19915;-88
2022/09/08 02:04:09;;;;;;;;;;;;;;;;;;4931602;29;19922;-88
2022/09/08 02:06:35;;;;;;;;;;;;;;;;;;4933046;29;20031;-88
2022/09/08 02:09:00;;;;;;;;;;;;;;;;;;4941814;29;19981;-88
2022/09/08 02:11:25;;;;;;;;;;;;;;;;;;4933470;28;19915;-88
2022/09/08 02:13:51;;;;;;;;;;;;;;;;;;4935828;29;19994;-88
2022/09/08 02:16:16;;;;;;;;;;;;;;;;;;4935312;29;19914;-88
2022/09/08 02:18:41;;;;;;;;;;;;;;;;;;4934291;29;19930;-88
2022/09/08 02:21:07;;;;;;;;;;;;;;;;;;4941861;28;19918;-88
2022/09/08 02:23:32;;;;;;;;;;;;;;;;;;4933041;29;19925;-88
2022/09/08 02:25:57;;;;;;;;;;;;;;;;;;4940252;29;19915;-88
2022/09/08 02:28:22;;;;;;;;;;;;;;;;;;4939441;29;19939;-90
2022/09/08 02:30:47;;;;;;;;;;;;;;;;;;4943589;29;19915;-88
2022/09/08 02:33:13;;;;;;;;;;;;;;;;;;4935175;29;19962;-88
2022/09/08 02:35:38;;;;;;;;;;;;;;;;;;4939974;29;19990;-88
2022/09/08 02:38:04;;;;;;;;;;;;;;;;;;4937912;28;19914;-88
2022/09/08 02:40:29;;;;;;;;;;;;;;;;;;4939705;29;19990;-88
2022/09/08 02:42:54;;;;;;;;;;;;;;;;;;4942593;28;19915;-88
2022/09/08 02:45:19;;;;;;;;;;;;;;;;;;4947817;29;20006;-88
2022/09/08 02:47:45;;;;;;;;;;;;;;;;;;4938621;29;19919;-88
2022/09/08 02:50:10;;;;;;;;;;;;;;;;;;4933950;29;20361;-89
2022/09/08 02:52:35;;;;;;;;;;;;;;;;;;4938277;28;19925;-88
2022/09/08 02:55:00;;;;;;;;;;;;;;;;;;4939327;29;19922;-88
2022/09/08 02:57:25;;;;;;;;;;;;;;;;;;4941884;29;19961;-88
2022/09/08 02:59:51;;;;;;;;;;;;;;;;;;4938574;29;19938;-88
2022/09/08 03:02:16;;;;;;;;;;;;;;;;;;4936685;29;20005;-89
2022/09/08 03:04:44;;;;;;;;;;;;;;;;;;4936060;29;19930;-88
2022/09/08 03:07:10;;;;;;;;;;;;;;;;;;4928183;29;19918;-88
2022/09/08 03:09:35;;;;;;;;;;;;;;;;;;4937691;29;19918;-88
2022/09/08 03:12:01;;;;;;;;;;;;;;;;;;4934863;29;19945;-88
2022/09/08 03:14:26;;;;;;;;;;;;;;;;;;4936084;29;19911;-88
2022/09/08 03:16:51;;;;;;;;;;;;;;;;;;4941422;29;20289;-88
2022/09/08 03:19:16;;;;;;;;;;;;;;;;;;4931543;29;20001;-89
2022/09/08 03:21:42;;;;;;;;;;;;;;;;;;4933497;28;19919;-88
2022/09/08 03:24:07;;;;;;;;;;;;;;;;;;4938437;29;20006;-88
2022/09/08 03:26:32;;;;;;;;;;;;;;;;;;4935200;29;19919;-89
2022/09/08 03:28:57;;;;;;;;;;;;;;;;;;4933714;29;20013;-88
2022/09/08 03:31:22;;;;;;;;;;;;;;;;;;4930637;28;19942;-88
2022/09/08 03:33:47;;;;;;;;;;;;;;;;;;4940653;29;20289;-88
2022/09/08 03:36:13;;;;;;;;;;;;;;;;;;4938182;29;19915;-89
2022/09/08 03:38:38;;;;;;;;;;;;;;;;;;4930561;29;20333;-88
2022/09/08 03:41:03;;;;;;;;;;;;;;;;;;4936678;29;19926;-88
2022/09/08 03:43:28;;;;;;;;;;;;;;;;;;4935598;29;20572;-89
2022/09/08 03:45:53;;;;;;;;;;;;;;;;;;4926728;29;19921;-88
2022/09/08 03:48:18;;;;;;;;;;;;;;;;;;4934180;29;19922;-88
2022/09/08 03:50:44;;;;;;;;;;;;;;;;;;4941205;29;19915;-88
2022/09/08 03:53:09;;;;;;;;;;;;;;;;;;4933319;29;19926;-89
2022/09/08 03:55:35;;;;;;;;;;;;;;;;;;4932540;29;20465;-89
2022/09/08 03:58:00;;;;;;;;;;;;;;;;;;4931967;29;19962;-89
2022/09/08 04:00:25;;;;;;;;;;;;;;;;;;4935813;29;20284;-88
2022/09/08 04:02:50;;;;;;;;;;;;;;;;;;4931362;29;19922;-88
2022/09/08 04:05:16;;;;;;;;;;;;;;;;;;4931021;29;19926;-89
2022/09/08 04:07:41;;;;;;;;;;;;;;;;;;4933916;29;20013;-89
2022/09/08 04:10:07;;;;;;;;;;;;;;;;;;4933670;29;19925;-89
2022/09/08 04:12:32;;;;;;;;;;;;;;;;;;4929550;29;20282;-89
2022/09/08 04:14:57;;;;;;;;;;;;;;;;;;4938830;29;20278;-88
2022/09/08 04:17:23;;;;;;;;;;;;;;;;;;4933973;29;19910;-88
2022/09/08 04:19:50;;;;;;;;;;;;;;;;;;4946535;29;20005;-88
2022/09/08 04:22:15;;;;;;;;;;;;;;;;;;4935817;28;19915;-89
2022/09/08 04:24:40;;;;;;;;;;;;;;;;;;4932386;29;19919;-90
2022/09/08 04:27:05;;;;;;;;;;;;;;;;;;4937795;29;19914;-88
2022/09/08 04:29:30;;;;;;;;;;;;;;;;;;4938305;29;19925;-89
2022/09/08 04:31:56;;;;;;;;;;;;;;;;;;4938131;28;20317;-88
2022/09/08 04:34:21;;;;;;;;;;;;;;;;;;4938077;29;19919;-88
2022/09/08 04:36:46;;;;;;;;;;;;;;;;;;4937952;29;19919;-88
2022/09/08 04:39:11;;;;;;;;;;;;;;;;;;4941646;29;19925;-88
2022/09/08 04:41:36;;;;;;;;;;;;;;;;;;4933479;29;19927;-89
2022/09/08 04:44:03;;;;;;;;;;;;;;;;;;4936419;29;19910;-88
2022/09/08 04:46:28;;;;;;;;;;;;;;;;;;4932042;29;19914;-88
2022/09/08 04:48:53;;;;;;;;;;;;;;;;;;4939870;29;19926;-88
2022/09/08 04:51:19;;;;;;;;;;;;;;;;;;4935155;28;19921;-88
2022/09/08 04:53:44;;;;;;;;;;;;;;;;;;4935684;29;19915;-88
2022/09/08 04:56:09;;;;;;;;;;;;;;;;;;4936450;29;20432;-88
2022/09/08 04:58:34;;;;;;;;;;;;;;;;;;4939753;29;19985;-88
2022/09/08 05:00:59;;;;;;;;;;;;;;;;;;4932200;29;19934;-88
2022/09/08 05:03:25;;;;;;;;;;;;;;;;;;4940016;29;20497;-88
2022/09/08 05:05:50;;;;;;;;;;;;;;;;;;4937414;29;21565;-88
2022/09/08 05:08:15;;;;;;;;;;;;;;;;;;4936460;29;20003;-88
2022/09/08 05:10:40;;;;;;;;;;;;;;;;;;4930252;29;20289;-88
2022/09/08 05:13:05;;;;;;;;;;;;;;;;;;4929624;29;20057;-88
2022/09/08 05:15:30;;;;;;;;;;;;;;;;;;4937051;29;20407;-88
2022/09/08 05:17:56;;;;;;;;;;;;;;;;;;4936986;29;19950;-89
2022/09/08 05:20:21;;;;;;;;;;;;;;;;;;4930384;29;20415;-88
2022/09/08 05:22:48;;;;;;;;;;;;;;;;;;4934244;28;23004;-88
2022/09/08 05:25:13;;;;;;;;;;;;;;;;;;4932659;29;20009;-88
2022/09/08 05:27:38;;;;;;;;;;;;;;;;;;4928775;29;19918;-89
2022/09/08 05:30:03;;;;;;;;;;;;;;;;;;4925008;29;19972;-88
2022/09/08 05:37:22;;;;;;;;;;;;;;;;;;4944181;28;19927;-83
2022/09/08 05:39:47;;;;;;;;;;;;;;;;;;4944909;28;19922;-83
2022/09/08 05:42:12;;;;;;;;;;;;;;;;;;4951838;28;19922;-82
2022/09/08 05:44:38;;;;;;;;;;;;;;;;;;4937021;29;19923;-83
2022/09/08 05:47:03;;;;;;;;;;;;;;;;;;4930942;29;20092;-83
2022/09/08 05:49:28;;;;;;;;;;;;;;;;;;4934372;29;19915;-83
2022/09/08 05:51:53;;;;;;;;;;;;;;;;;;4927086;29;19914;-82
2022/09/08 05:54:18;;;;;;;;;;;;;;;;;;4931181;29;19915;-82
2022/09/08 05:56:44;;;;;;;;;;;;;;;;;;4930946;29;20292;-82
2022/09/08 05:59:09;;;;;;;;;;;;;;;;;;4928648;29;20094;-81
2022/09/08 06:01:34;;;;;;;;;;;;;;;;;;4931108;29;19946;-82
2022/09/08 06:03:59;;;;;;;;;;;;;;;;;;4930813;29;19914;-82
2022/09/08 06:06:24;;;;;;;;;;;;;;;;;;4928767;29;19915;-82
2022/09/08 06:08:50;;;;;;;;;;;;;;;;;;4928495;29;19915;-82
2022/09/08 06:11:15;;;;;;;;;;;;;;;;;;4929638;29;19914;-82
2022/09/08 06:13:40;;;;;;;;;;;;;;;;;;4940748;29;19914;-82
2022/09/08 06:16:05;;;;;;;;;;;;;;;;;;4929058;29;19970;-82
2022/09/08 06:18:30;;;;;;;;;;;;;;;;;;4928978;29;19979;-83
2022/09/08 06:20:55;;;;;;;;;;;;;;;;;;4909677;29;19929;-83
2022/09/08 06:23:21;;;;;;;;;;;;;;;;;;4923687;29;19990;-82
2022/09/08 06:25:46;;;;;;;;;;;;;;;;;;4929325;29;19981;-83
2022/09/08 06:28:11;;;;;;;;;;;;;;;;;;4915578;29;20009;-81
2022/09/08 06:30:37;;;;;;;;;;;;;;;;;;4931568;29;19919;-83
2022/09/08 06:33:02;;;;;;;;;;;;;;;;;;4930164;29;19922;-82
2022/09/08 06:35:27;;;;;;;;;;;;;;;;;;4936457;29;19914;-83
2022/09/08 06:37:52;;;;;;;;;;;;;;;;;;4932677;29;19915;-82
2022/09/08 06:40:18;;;;;;;;;;;;;;;;;;4930317;29;20580;-83
2022/09/08 06:42:43;;;;;;;;;;;;;;;;;;4928965;29;19915;-83
2022/09/08 06:45:08;;;;;;;;;;;;;;;;;;4928529;29;20376;-82
2022/09/08 06:47:33;;;;;;;;;;;;;;;;;;4931498;29;19919;-82
2022/09/08 06:49:59;;;;;;;;;;;;;;;;;;4936341;28;19915;-82
2022/09/08 06:52:24;;;;;;;;;;;;;;;;;;4930054;29;19969;-82
2022/09/08 06:54:49;;;;;;;;;;;;;;;;;;4931667;29;19922;-82
2022/09/08 06:57:14;;;;;;;;;;;;;;;;;;4928934;29;19950;-81
2022/09/08 06:59:39;;;;;;;;;;;;;;;;;;4930039;29;19938;-82
2022/09/08 07:02:04;;;;;;;;;;;;;;;;;;4925609;29;20349;-82
2022/09/08 07:04:30;;;;;;;;;;;;;;;;;;4935973;29;19915;-83
2022/09/08 07:06:55;;;;;;;;;;;;;;;;;;4933386;29;19923;-82
2022/09/08 07:09:21;;;;;;;;;;;;;;;;;;4928529;29;20001;-82
2022/09/08 07:11:46;;;;;;;;;;;;;;;;;;4928216;29;19922;-83
2022/09/08 07:14:12;;;;;;;;;;;;;;;;;;4930827;29;19962;-82
2022/09/08 07:16:37;;;;;;;;;;;;;;;;;;4937920;29;19918;-82
2022/09/08 07:19:02;;;;;;;;;;;;;;;;;;4937387;29;19921;-82
2022/09/08 07:21:27;;;;;;;;;;;;;;;;;;4936365;29;19918;-82
2022/09/08 07:23:52;;;;;;;;;;;;;;;;;;4933991;28;19961;-82
2022/09/08 07:26:17;;;;;;;;;;;;;;;;;;4926636;29;20299;-83
2022/09/08 07:28:43;;;;;;;;;;;;;;;;;;4935934;29;20281;-83
2022/09/08 07:31:08;;;;;;;;;;;;;;;;;;4914182;29;20300;-82
2022/09/08 07:33:33;;;;;;;;;;;;;;;;;;4932928;29;19946;-83
2022/09/08 07:35:58;;;;;;;;;;;;;;;;;;4938929;28;19923;-83
2022/09/08 07:38:24;;;;;;;;;;;;;;;;;;4940708;29;20622;-82
2022/09/08 07:40:49;;;;;;;;;;;;;;;;;;4939674;29;19974;-82
2022/09/08 07:43:14;;;;;;;;;;;;;;;;;;4940881;29;19914;-82
2022/09/08 07:45:39;;;;;;;;;;;;;;;;;;4932486;29;19915;-82
2022/09/08 07:48:04;;;;;;;;;;;;;;;;;;4929289;29;19921;-83
2022/09/08 07:53:13;;;;;;;;;;;;;;;;;;4932481;29;20333;-83
2022/09/08 07:55:39;;;;;;;;;;;;;;;;;;4936559;29;19915;-83
2022/09/08 07:58:04;;;;;;;;;;;;;;;;;;4930963;29;19954;-84
2022/09/08 08:00:29;;;;;;;;;;;;;;;;;;4938476;28;20394;-83
2022/09/08 08:02:54;;;;;;;;;;;;;;;;;;4927002;29;19918;-83
2022/09/08 08:05:19;;;;;;;;;;;;;;;;;;4939131;28;20395;-84
2022/09/08 08:07:45;;;;;;;;;;;;;;;;;;4941252;29;21706;-85
2022/09/08 08:10:10;;;;;;;;;;;;;;;;;;4940808;29;19914;-85
2022/09/08 08:12:35;;;;;;;;;;;;;;;;;;4933857;29;20392;-84
2022/09/08 08:15:01;;;;;;;;;;;;;;;;;;4920440;29;19930;-85
2022/09/08 08:17:26;;;;;;;;;;;;;;;;;;4937686;29;20009;-84
2022/09/08 08:19:52;;;;;;;;;;;;;;;;;;4938066;29;20404;-85
2022/09/08 08:22:17;;;;;;;;;;;;;;;;;;4925672;29;19977;-86
2022/09/08 08:24:42;;;;;;;;;;;;;;;;;;4931884;29;19922;-85
2022/09/08 08:27:07;;;;;;;;;;;;;;;;;;4932850;29;20336;-85
2022/09/08 08:29:32;;;;;;;;;;;;;;;;;;4935758;29;19915;-86
2022/09/08 08:31:57;;;;;;;;;;;;;;;;;;4932850;29;20445;-85
2022/09/08 08:34:23;;;;;;;;;;;;;;;;;;4928715;29;19919;-84
2022/09/08 08:36:48;;;;;;;;;;;;;;;;;;4915460;29;19929;-84
2022/09/08 08:39:13;;;;;;;;;;;;;;;;;;4933352;29;19957;-84
2022/09/08 08:41:38;;;;;;;;;;;;;;;;;;4934607;29;20362;-85
2022/09/08 08:44:04;;;;;;;;;;;;;;;;;;4936095;29;19950;-84
2022/09/08 08:46:29;;;;;;;;;;;;;;;;;;4932245;29;19937;-85
2022/09/08 08:48:54;;;;;;;;;;;;;;;;;;4933605;29;20618;-85
2022/09/08 08:51:19;;;;;;;;;;;;;;;;;;4932475;29;19990;-86
2022/09/08 08:53:44;;;;;;;;;;;;;;;;;;4930623;29;19966;-84
2022/09/08 08:56:10;;;;;;;;;;;;;;;;;;4935272;29;19930;-85
2022/09/08 08:58:35;;;;;;;;;;;;;;;;;;4927839;29;19971;-86
2022/09/08 09:01:00;;;;;;;;;;;;;;;;;;4927361;29;19929;-86
2022/09/08 09:03:25;;;;;;;;;;;;;;;;;;4944848;29;19915;-85
2022/09/08 09:05:51;;;;;;;;;;;;;;;;;;4939282;29;19914;-87
2022/09/08 09:08:16;;;;;;;;;;;;;;;;;;4933352;29;19915;-87
2022/09/08 09:10:41;;;;;;;;;;;;;;;;;;4922755;29;19918;-87
2022/09/08 09:13:06;;;;;;;;;;;;;;;;;;4927464;29;20015;-86
2022/09/08 09:15:31;;;;;;;;;;;;;;;;;;4924850;28;19915;-86
2022/09/08 09:17:56;;;;;;;;;;;;;;;;;;4922156;29;19923;-86
2022/09/08 09:20:22;;;;;;;;;;;;;;;;;;4936640;29;19966;-86
2022/09/08 09:22:47;;;;;;;;;;;;;;;;;;4922580;29;19926;-86
2022/09/08 09:25:12;;;;;;;;;;;;;;;;;;4928008;29;19921;-88
2022/09/08 09:27:37;;;;;;;;;;;;;;;;;;4923307;29;19925;-86
2022/09/08 09:30:02;;;;;;;;;;;;;;;;;;4929061;29;19918;-86
2022/09/08 09:32:28;;;;;;;;;;;;;;;;;;4927712;29;19914;-87
2022/09/08 09:34:53;;;;;;;;;;;;;;;;;;4918564;29;19929;-86
2022/09/08 09:37:19;;;;;;;;;;;;;;;;;;4934313;29;19954;-87
2022/09/08 09:39:44;;;;;;;;;;;;;;;;;;4921681;29;20002;-87
2022/09/08 09:42:09;;;;;;;;;;;;;;;;;;4910684;29;20430;-87
2022/09/08 09:44:34;;;;;;;;;;;;;;;;;;4927323;29;20354;-87
2022/09/08 09:47:00;;;;;;;;;;;;;;;;;;4908333;29;19915;-87
2022/09/08 09:49:25;;;;;;;;;;;;;;;;;;4921081;29;19963;-86
2022/09/08 09:51:50;;;;;;;;;;;;;;;;;;4934553;29;20416;-87
2022/09/08 09:54:17;;;;;;;;;;;;;;;;;;4928474;29;19915;-86
2022/09/08 09:56:42;;;;;;;;;;;;;;;;;;4927314;28;20392;-86
2022/09/08 09:59:08;;;;;;;;;;;;;;;;;;4930600;29;19922;-86
2022/09/08 10:01:34;;;;;;;;;;;;;;;;;;4931575;29;19973;-87
2022/09/08 10:03:59;;;;;;;;;;;;;;;;;;4922198;29;20005;-87
2022/09/08 10:06:24;;;;;;;;;;;;;;;;;;4919806;29;19922;-87
2022/09/08 10:08:50;;;;;;;;;;;;;;;;;;4915915;29;21200;-86
2022/09/08 10:11:15;;;;;;;;;;;;;;;;;;4923994;29;19921;-87
2022/09/08 10:13:41;;;;;;;;;;;;;;;;;;4922440;29;19921;-86
2022/09/08 10:16:06;;;;;;;;;;;;;;;;;;4924036;29;19994;-86
2022/09/08 10:18:31;;;;;;;;;;;;;;;;;;4925980;29;20157;-87
2022/09/08 10:20:56;;;;;;;;;;;;;;;;;;4934010;29;20030;-86
2022/09/08 10:23:21;;;;;;;;;;;;;;;;;;4926818;29;20006;-87
2022/09/08 10:25:47;;;;;;;;;;;;;;;;;;4929611;28;19923;-87
2022/09/08 10:28:12;;;;;;;;;;;;;;;;;;4924572;29;19914;-87
2022/09/08 10:30:37;;;;;;;;;;;;;;;;;;4920901;29;20329;-87
2022/09/08 10:33:02;;;;;;;;;;;;;;;;;;4923831;29;21595;-87
2022/09/08 10:35:27;;;;;;;;;;;;;;;;;;4925020;28;20038;-87
2022/09/08 10:37:53;;;;;;;;;;;;;;;;;;4922748;29;19914;-86
2022/09/08 10:40:18;;;;;;;;;;;;;;;;;;4926838;29;19923;-87
2022/09/08 10:42:43;;;;;;;;;;;;;;;;;;4930419;28;19915;-87
2022/09/08 10:45:08;;;;;;;;;;;;;;;;;;4932563;29;19922;-87
2022/09/08 10:47:33;;;;;;;;;;;;;;;;;;4925985;29;20534;-87
2022/09/08 10:49:58;;;;;;;;;;;;;;;;;;4928073;29;19947;-87
2022/09/08 10:52:24;;;;;;;;;;;;;;;;;;4927234;29;20421;-87
2022/09/08 10:54:49;;;;;;;;;;;;;;;;;;4925789;29;19915;-87
2022/09/08 10:57:14;;;;;;;;;;;;;;;;;;4922961;28;20521;-86
2022/09/08 10:59:39;;;;;;;;;;;;;;;;;;4927407;29;19942;-88
2022/09/08 11:02:05;;;;;;;;;;;;;;;;;;4928239;29;19931;-87
2022/09/08 11:04:30;;;;;;;;;;;;;;;;;;4929387;29;20009;-87
2022/09/08 11:06:55;;;;;;;;;;;;;;;;;;4930627;29;19929;-87
2022/09/08 11:09:20;;;;;;;;;;;;;;;;;;4923333;29;20388;-87
2022/09/08 11:11:46;;;;;;;;;;;;;;;;;;4930451;29;19919;-87
2022/09/08 11:14:15;;;;;;;;;;;;;;;;;;4932314;29;20388;-87
2022/09/08 11:16:40;;;;;;;;;;;;;;;;;;4925719;29;19957;-86
2022/09/08 11:19:06;;;;;;;;;;;;;;;;;;4923688;29;19954;-88
2022/09/08 11:21:31;;;;;;;;;;;;;;;;;;4929879;29;20372;-86
2022/09/08 11:23:56;;;;;;;;;;;;;;;;;;4926594;29;19942;-86
2022/09/08 11:26:21;;;;;;;;;;;;;;;;;;4926139;29;19922;-86
2022/09/08 11:28:47;;;;;;;;;;;;;;;;;;4931746;29;20300;-87
2022/09/08 11:31:12;;;;;;;;;;;;;;;;;;4915248;29;19911;-87
2022/09/08 11:33:37;;;;;;;;;;;;;;;;;;4939743;23;19922;-84
2022/09/08 11:36:02;;;;;;;;;;;;;;;;;;4960024;28;19923;-85
2022/09/08 11:38:27;;;;;;;;;;;;;;;;;;4959417;28;20001;-84
2022/09/08 11:40:52;;;;;;;;;;;;;;;;;;4955448;28;20389;-85
2022/09/08 11:43:17;;;;;;;;;;;;;;;;;;4958018;28;19918;-85
2022/09/08 11:45:43;;;;;;;;;;;;;;;;;;4966493;28;20355;-85
2022/09/08 11:48:08;;;;;;;;;;;;;;;;;;4966919;28;19922;-85
2022/09/08 11:50:33;;;;;;;;;;;;;;;;;;4962638;28;19918;-85
2022/09/08 11:52:58;;;;;;;;;;;;;;;;;;4963294;28;19921;-85
2022/09/08 11:55:24;;;;;;;;;;;;;;;;;;4967010;28;20379;-85
2022/09/08 11:57:50;;;;;;;;;;;;;;;;;;4964116;28;19917;-85
2022/09/08 12:00:15;;;;;;;;;;;;;;;;;;4967840;28;20364;-85
2022/09/08 12:02:40;;;;;;;;;;;;;;;;;;4964884;28;19921;-85
2022/09/08 12:05:05;;;;;;;;;;;;;;;;;;4968846;28;19918;-85
2022/09/08 12:07:30;;;;;;;;;;;;;;;;;;4965338;28;20002;-85
2022/09/08 12:09:55;;;;;;;;;;;;;;;;;;4961950;28;20458;-85
2022/09/08 12:12:21;;;;;;;;;;;;;;;;;;4963173;28;19914;-85
2022/09/08 12:14:46;;;;;;;;;;;;;;;;;;4965836;28;19914;-85
2022/09/08 12:17:11;;;;;;;;;;;;;;;;;;4963214;28;19936;-85
2022/09/08 12:19:36;;;;;;;;;;;;;;;;;;4965954;28;19919;-85
2022/09/08 12:22:01;;;;;;;;;;;;;;;;;;4963325;28;19938;-85
2022/09/08 12:24:26;;;;;;;;;;;;;;;;;;4967105;28;19953;-85
2022/09/08 12:26:52;;;;;;;;;;;;;;;;;;4955324;28;19937;-85
2022/09/08 12:29:17;;;;;;;;;;;;;;;;;;4964548;28;19917;-85
2022/09/08 12:31:42;;;;;;;;;;;;;;;;;;4965997;28;19914;-85
2022/09/08 12:34:07;;;;;;;;;;;;;;;;;;4968197;28;19914;-85
2022/09/08 12:36:32;;;;;;;;;;;;;;;;;;4966313;28;20292;-85
2022/09/08 12:38:58;;;;;;;;;;;;;;;;;;4964307;28;19957;-85
2022/09/08 12:41:23;;;;;;;;;;;;;;;;;;4960529;28;20426;-85
2022/09/08 12:43:48;;;;;;;;;;;;;;;;;;4965733;28;19926;-85
2022/09/08 12:46:13;;;;;;;;;;;;;;;;;;4963406;28;19922;-85
2022/09/08 12:48:39;;;;;;;;;;;;;;;;;;4962867;28;19915;-84
2022/09/08 12:51:04;;;;;;;;;;;;;;;;;;4965289;28;19914;-85
2022/09/08 12:53:29;;;;;;;;;;;;;;;;;;4959301;28;19918;-85
2022/09/08 12:55:55;;;;;;;;;;;;;;;;;;4963047;28;19918;-85
2022/09/08 12:58:20;;;;;;;;;;;;;;;;;;4964928;28;20372;-85
2022/09/08 13:00:45;;;;;;;;;;;;;;;;;;4957285;28;20438;-85
2022/09/08 13:03:10;;;;;;;;;;;;;;;;;;4968552;28;19920;-85
2022/09/08 13:05:35;;;;;;;;;;;;;;;;;;4960468;28;20343;-85
2022/09/08 13:08:00;;;;;;;;;;;;;;;;;;4961557;28;19996;-84
2022/09/08 13:10:25;;;;;;;;;;;;;;;;;;4945027;28;19937;-84
2022/09/08 13:12:51;;;;;;;;;;;;;;;;;;4962271;28;19928;-84
2022/09/08 13:15:16;;;;;;;;;;;;;;;;;;4967020;28;20431;-84
2022/09/08 13:17:41;;;;;;;;;;;;;;;;;;4963407;28;19924;-84
2022/09/08 13:20:06;;;;;;;;;;;;;;;;;;4964040;28;19918;-85
2022/09/08 13:22:31;;;;;;;;;;;;;;;;;;4960646;28;19914;-85
2022/09/08 13:24:56;;;;;;;;;;;;;;;;;;4963790;28;20017;-85
2022/09/08 13:27:22;;;;;;;;;;;;;;;;;;4962832;28;19914;-85
2022/09/08 13:29:47;;;;;;;;;;;;;;;;;;4961271;28;19918;-85
2022/09/08 13:32:12;;;;;;;;;;;;;;;;;;4963595;28;19961;-85
2022/09/08 13:34:37;;;;;;;;;;;;;;;;;;4962940;28;20417;-84
2022/09/08 13:37:02;;;;;;;;;;;;;;;;;;4958293;28;19968;-85
2022/09/08 13:39:27;;;;;;;;;;;;;;;;;;4959478;28;19946;-85
2022/09/08 13:41:53;;;;;;;;;;;;;;;;;;4961339;28;19918;-85
2022/09/08 13:44:18;;;;;;;;;;;;;;;;;;4959835;28;19929;-85
2022/09/08 13:46:43;;;;;;;;;;;;;;;;;;4959460;28;20304;-86
2022/09/08 13:49:08;;;;;;;;;;;;;;;;;;4962865;28;20044;-85
2022/09/08 13:51:33;;;;;;;;;;;;;;;;;;4964365;28;19922;-86
2022/09/08 13:53:58;;;;;;;;;;;;;;;;;;4960723;28;19918;-86
2022/09/08 13:56:24;;;;;;;;;;;;;;;;;;4961817;28;19924;-86
2022/09/08 13:58:49;;;;;;;;;;;;;;;;;;4956685;28;19922;-86
2022/09/08 14:01:14;;;;;;;;;;;;;;;;;;4960143;28;19922;-86
2022/09/08 14:03:39;;;;;;;;;;;;;;;;;;4956505;28;19914;-86
2022/09/08 14:06:04;;;;;;;;;;;;;;;;;;4963909;28;19969;-86
2022/09/08 14:08:29;;;;;;;;;;;;;;;;;;4964965;28;19918;-86
2022/09/08 14:10:55;;;;;;;;;;;;;;;;;;4967068;28;19921;-86
2022/09/08 14:13:20;;;;;;;;;;;;;;;;;;4956365;28;19997;-86
2022/09/08 14:15:45;;;;;;;;;;;;;;;;;;4964517;28;19921;-87
2022/09/08 14:18:11;;;;;;;;;;;;;;;;;;4968256;28;19915;-86
2022/09/08 14:20:36;;;;;;;;;;;;;;;;;;4966054;28;19918;-86
2022/09/08 14:23:01;;;;;;;;;;;;;;;;;;4969743;28;19941;-86
2022/09/08 14:25:26;;;;;;;;;;;;;;;;;;4966150;28;19914;-86
2022/09/08 14:27:51;;;;;;;;;;;;;;;;;;4963136;28;19929;-86
2022/09/08 14:30:17;;;;;;;;;;;;;;;;;;4966058;28;19918;-87
2022/09/08 14:32:42;;;;;;;;;;;;;;;;;;4964507;28;20532;-87
2022/09/08 14:35:07;;;;;;;;;;;;;;;;;;4961126;28;19980;-87
2022/09/08 14:37:35;;;;;;;;;;;;;;;;;;4968335;28;19914;-87
2022/09/08 14:40:01;;;;;;;;;;;;;;;;;;4968939;28;20008;-88
2022/09/08 14:42:26;;;;;;;;;;;;;;;;;;4964356;28;20424;-88
2022/09/08 14:44:51;;;;;;;;;;;;;;;;;;4949293;28;20073;-89
2022/09/08 14:47:17;;;;;;;;;;;;;;;;;;4966958;28;19914;-89
2022/09/08 14:49:42;;;;;;;;;;;;;;;;;;4966665;28;20368;-89
2022/09/08 14:52:09;;;;;;;;;;;;;;;;;;4966085;28;19921;-89
2022/09/08 14:54:35;;;;;;;;;;;;;;;;;;4960474;28;19922;-89
2022/09/08 14:57:00;;;;;;;;;;;;;;;;;;4962874;28;19925;-89
2022/09/08 14:59:26;;;;;;;;;;;;;;;;;;4959666;28;19923;-88
2022/09/08 15:01:52;;;;;;;;;;;;;;;;;;4959973;28;19929;-88
2022/09/08 15:04:17;;;;;;;;;;;;;;;;;;4961532;28;19918;-88
2022/09/08 15:06:42;;;;;;;;;;;;;;;;;;4964019;28;19916;-88
2022/09/08 15:09:07;;;;;;;;;;;;;;;;;;4966417;28;19914;-88
2022/09/08 15:11:33;;;;;;;;;;;;;;;;;;4962331;28;19918;-87
2022/09/08 15:13:58;;;;;;;;;;;;;;;;;;4963304;28;19923;-87
2022/09/08 15:16:23;;;;;;;;;;;;;;;;;;4965140;28;20506;-87
2022/09/08 15:18:51;;;;;;;;;;;;;;;;;;4962723;28;19923;-87
2022/09/08 15:21:17;;;;;;;;;;;;;;;;;;4961705;28;19918;-86
2022/09/08 15:23:42;;;;;;;;;;;;;;;;;;4966772;28;19918;-86
2022/09/08 15:26:07;;;;;;;;;;;;;;;;;;4942724;28;19925;-86
2022/09/08 15:28:33;;;;;;;;;;;;;;;;;;4963072;28;19918;-86
2022/09/08 15:30:58;;;;;;;;;;;;;;;;;;4959627;28;19922;-86
2022/09/08 15:33:23;;;;;;;;;;;;;;;;;;4965149;28;19921;-85
2022/09/08 15:35:48;;;;;;;;;;;;;;;;;;4955965;28;20459;-86
2022/09/08 15:38:14;;;;;;;;;;;;;;;;;;4961766;28;19922;-86
2022/09/08 15:40:39;;;;;;;;;;;;;;;;;;4964360;28;20380;-86
2022/09/08 15:43:06;;;;;;;;;;;;;;;;;;4963132;28;19923;-87
2022/09/08 15:45:32;;;;;;;;;;;;;;;;;;4957426;28;20284;-86
2022/09/08 15:47:57;;;;;;;;;;;;;;;;;;4961098;28;19918;-86
2022/09/08 15:50:22;;;;;;;;;;;;;;;;;;4963677;28;20012;-86
2022/09/08 15:52:47;;;;;;;;;;;;;;;;;;4963553;28;20132;-86
2022/09/08 15:55:12;;;;;;;;;;;;;;;;;;4963325;28;19922;-86
2022/09/08 15:57:37;;;;;;;;;;;;;;;;;;4961688;28;19926;-86
2022/09/08 16:00:14;;;;;;;;;;;;;;;;;;4962064;28;19919;-86
2022/09/08 16:02:39;;;;;;;;;;;;;;;;;;4964030;28;20285;-86
2022/09/08 16:05:04;;;;;;;;;;;;;;;;;;4958835;28;19929;-86
2022/09/08 16:07:29;;;;;;;;;;;;;;;;;;4942776;28;19968;-86
2022/09/08 16:09:55;;;;;;;;;;;;;;;;;;4967706;28;19950;-86
2022/09/08 16:12:20;;;;;;;;;;;;;;;;;;4958960;28;20300;-86
2022/09/08 16:14:45;;;;;;;;;;;;;;;;;;4960118;28;19965;-86
2022/09/08 16:17:10;;;;;;;;;;;;;;;;;;4959996;28;19918;-86
2022/09/08 16:19:38;;;;;;;;;;;;;;;;;;4963399;28;19921;-86
2022/09/08 16:22:05;;;;;;;;;;;;;;;;;;4956876;28;21393;-86
2022/09/08 16:24:30;;;;;;;;;;;;;;;;;;4963505;28;19942;-86
2022/09/08 16:26:55;;;;;;;;;;;;;;;;;;4957158;28;19969;-86
2022/09/08 16:29:20;;;;;;;;;;;;;;;;;;4962720;28;19914;-86
2022/09/08 16:31:46;;;;;;;;;;;;;;;;;;4955925;28;19969;-85
2022/09/08 16:34:11;;;;;;;;;;;;;;;;;;4961959;28;20059;-87
2022/09/08 16:36:36;;;;;;;;;;;;;;;;;;4954399;28;20011;-87
2022/09/08 16:39:02;;;;;;;;;;;;;;;;;;4958797;28;19918;-86
2022/09/08 16:41:27;;;;;;;;;;;;;;;;;;4960703;28;19922;-86
2022/09/08 16:43:52;;;;;;;;;;;;;;;;;;4962292;28;20281;-86
2022/09/08 16:46:17;;;;;;;;;;;;;;;;;;4936802;28;19922;-86